Time;durP1;ratioP1;P1;durP2;ratioP2;P2;SDS_P1;SDS_P2;PMS_P1;PMS_P2;Temp;Humidity;BMP_temperature;BMP_pressure;BME280_temperature;BME280_humidity;BME280_pressure;Samples;Min_cycle;Max_cycle;Signal;HPM_P1;HPM_P2
2021/08/21 00:00:13;;;;;;;6.10;3.97;;;;;;;10.29;100.00;101509.34;5089597;28;20028;-70
2021/08/21 00:02:39;;;;;;;5.40;3.72;;;;;;;10.35;100.00;101520.31;5088208;28;20047;-71
2021/08/21 00:05:06;;;;;;;9.82;3.88;;;;;;;10.37;100.00;101514.81;5088268;28;20042;-71
2021/08/21 00:07:31;;;;;;;8.07;4.38;;;;;;;10.32;100.00;101520.59;5088883;28;20051;-70
2021/08/21 00:09:58;;;;;;;6.35;4.30;;;;;;;10.29;100.00;101514.69;5089418;28;20027;-70
2021/08/21 00:12:23;;;;;;;6.75;4.20;;;;;;;10.25;100.00;101519.41;5088001;28;20032;-70
2021/08/21 00:14:49;;;;;;;6.17;4.37;;;;;;;10.19;100.00;101520.00;5089166;28;20039;-70
2021/08/21 00:17:14;;;;;;;9.17;5.97;;;;;;;10.19;100.00;101527.16;5088773;28;20055;-70
2021/08/21 00:19:39;;;;;;;10.03;4.83;;;;;;;10.17;100.00;101527.31;5088292;28;20043;-70
2021/08/21 00:22:05;;;;;;;8.70;5.40;;;;;;;10.15;100.00;101524.75;5088973;28;20039;-70
2021/08/21 00:24:30;;;;;;;10.00;5.63;;;;;;;10.11;100.00;101526.06;5087147;28;20449;-71
2021/08/21 00:26:55;;;;;;;8.23;4.03;;;;;;;10.10;100.00;101526.19;5087617;28;20040;-70
2021/08/21 00:29:21;;;;;;;8.70;4.87;;;;;;;10.09;100.00;101525.34;5088133;28;20036;-70
2021/08/21 00:31:46;;;;;;;8.50;5.30;;;;;;;10.14;100.00;101527.59;5070953;28;20517;-71
2021/08/21 00:34:12;;;;;;;8.50;5.97;;;;;;;10.08;100.00;101523.63;5087755;28;20570;-70
2021/08/21 00:36:38;;;;;;;11.30;5.50;;;;;;;10.06;100.00;101525.59;5087839;28;20048;-70
2021/08/21 00:39:03;;;;;;;9.27;4.93;;;;;;;10.00;100.00;101526.19;5070845;28;20075;-70
2021/08/21 00:41:29;;;;;;;11.63;5.03;;;;;;;9.97;100.00;101525.59;5088869;28;20035;-70
2021/08/21 00:43:54;;;;;;;10.13;5.27;;;;;;;9.96;100.00;101521.25;5088008;28;20109;-70
2021/08/21 00:46:20;;;;;;;10.40;6.03;;;;;;;9.99;100.00;101529.81;5087371;28;20313;-70
2021/08/21 00:48:45;;;;;;;11.20;5.87;;;;;;;9.97;100.00;101531.78;5087521;28;20499;-70
2021/08/21 00:51:10;;;;;;;8.77;6.13;;;;;;;9.93;100.00;101538.41;5087894;28;20057;-70
2021/08/21 00:53:36;;;;;;;17.23;6.87;;;;;;;9.87;100.00;101531.78;5088346;28;20032;-70
2021/08/21 00:56:02;;;;;;;14.27;7.60;;;;;;;9.85;100.00;101530.22;5087363;28;20358;-71
2021/08/21 00:58:31;;;;;;;10.70;6.30;;;;;;;9.80;100.00;101538.63;5087421;28;20062;-70
2021/08/21 01:00:57;;;;;;;15.18;7.10;;;;;;;9.78;100.00;101531.75;5070899;28;20082;-70
2021/08/21 01:03:22;;;;;;;8.73;5.73;;;;;;;9.76;100.00;101528.38;5088440;28;20477;-70
2021/08/21 01:05:48;;;;;;;7.77;5.30;;;;;;;9.71;100.00;101526.97;5088355;28;20449;-70
2021/08/21 01:08:14;;;;;;;14.27;7.13;;;;;;;9.71;100.00;101537.63;5087279;28;20958;-70
2021/08/21 01:10:52;;;;;;;9.43;5.65;;;;;;;9.70;100.00;101532.47;5087648;28;20032;-70
2021/08/21 01:13:18;;;;;;;11.90;6.63;;;;;;;9.68;100.00;101537.91;5087267;28;20085;-70
2021/08/21 01:15:44;;;;;;;8.90;6.22;;;;;;;9.60;100.00;101534.25;5087139;28;20032;-70
2021/08/21 01:18:11;;;;;;;12.43;6.22;;;;;;;9.66;100.00;101539.88;5087404;28;20028;-70
2021/08/21 01:20:37;;;;;;;11.65;7.28;;;;;;;9.73;100.00;101535.69;5087247;28;20058;-70
2021/08/21 01:23:05;;;;;;;12.15;6.80;;;;;;;9.61;100.00;101531.44;5070784;28;20694;-71
2021/08/21 01:25:39;;;;;;;11.57;6.00;;;;;;;9.57;100.00;101534.53;5086655;28;20047;-70
2021/08/21 01:28:07;;;;;;;11.02;6.18;;;;;;;9.51;100.00;101530.59;5087112;28;20069;-70
2021/08/21 01:30:42;;;;;;;21.95;8.32;;;;;;;9.50;100.00;101528.88;5087157;28;20020;-70
2021/08/21 01:33:18;;;;;;;16.88;8.60;;;;;;;9.58;100.00;101537.06;5087256;28;20047;-70
2021/08/21 01:35:43;;;;;;;11.63;5.87;;;;;;;9.54;100.00;101530.31;5087697;28;20040;-70
2021/08/21 01:38:09;;;;;;;10.67;6.83;;;;;;;9.75;100.00;101526.72;5091154;28;20032;-70
2021/08/21 01:40:53;;;;;;;16.13;7.78;;;;;;;9.70;100.00;101537.78;5076679;28;20426;-70
2021/08/21 01:43:20;;;;;;;14.77;8.73;;;;;;;9.55;100.00;101534.66;5073798;28;20511;-70
2021/08/21 01:45:47;;;;;;;11.88;6.95;;;;;;;9.50;100.00;101527.09;5090334;28;20032;-70
2021/08/21 01:48:12;;;;;;;20.88;10.23;;;;;;;9.49;100.00;101528.06;5091762;28;20032;-70
2021/08/21 01:50:38;;;;;;;13.07;8.17;;;;;;;9.51;100.00;101530.59;5090720;28;20590;-70
2021/08/21 01:53:13;;;;;;;13.25;8.07;;;;;;;9.44;100.00;101529.47;5090674;28;20032;-70
2021/08/21 01:55:39;;;;;;;13.40;8.45;;;;;;;9.45;100.00;101536.47;5090454;28;20790;-70
2021/08/21 01:58:17;;;;;;;18.55;8.05;;;;;;;9.43;100.00;101531.25;5090551;28;20024;-70
2021/08/21 02:01:08;;;;;;;21.67;12.60;;;;;;;9.57;100.00;101535.38;5090460;28;20035;-70
2021/08/21 02:03:49;;;;;;;16.25;8.73;;;;;;;9.48;100.00;101528.19;5089197;28;20038;-70
2021/08/21 02:06:14;;;;;;;21.40;10.23;;;;;;;9.37;100.00;101530.97;5088457;28;20032;-70
2021/08/21 02:08:40;;;;;;;14.35;8.10;;;;;;;9.38;100.00;101536.16;5088848;28;20055;-70
2021/08/21 02:11:06;;;;;;;15.53;8.97;;;;;;;9.38;100.00;101532.66;5071896;28;20032;-70
2021/08/21 02:13:32;;;;;;;20.80;9.50;;;;;;;9.41;100.00;101535.91;5088965;28;20416;-70
2021/08/21 02:15:58;;;;;;;21.75;9.57;;;;;;;9.32;100.00;101530.50;5088385;28;20040;-70
2021/08/21 02:18:24;;;;;;;16.60;7.72;;;;;;;9.22;100.00;101531.31;5090183;28;20429;-70
2021/08/21 02:20:57;;;;;;;16.30;8.10;;;;;;;9.23;100.00;101537.53;5090329;28;20043;-70
2021/08/21 02:23:25;;;;;;;19.60;9.90;;;;;;;9.21;100.00;101529.66;5073183;28;20505;-70
2021/08/21 02:25:56;;;;;;;25.98;10.57;;;;;;;9.16;100.00;101537.22;5089835;28;20039;-70
2021/08/21 02:28:23;;;;;;;15.98;8.65;;;;;;;9.18;100.00;101521.94;5073478;28;20105;-70
2021/08/21 02:30:49;;;;;;;14.87;8.23;;;;;;;9.13;100.00;101534.81;5090222;28;20027;-70
2021/08/21 02:33:14;;;;;;;14.13;7.67;;;;;;;9.04;100.00;101516.97;5089816;28;20090;-70
2021/08/21 02:35:40;;;;;;;19.60;8.00;;;;;;;9.03;100.00;101531.25;5072963;28;20028;-70
2021/08/21 02:38:08;;;;;;;16.10;7.50;;;;;;;9.01;100.00;101530.53;5072749;28;20028;-70
2021/08/21 02:40:33;;;;;;;15.57;8.57;;;;;;;9.00;100.00;101526.19;5090029;28;20040;-70
2021/08/21 02:42:58;;;;;;;16.60;8.23;;;;;;;9.11;100.00;101531.44;5089661;28;20491;-70
2021/08/21 02:45:24;;;;;;;14.73;7.68;;;;;;;9.01;100.00;101533.19;5089679;28;20047;-70
2021/08/21 02:47:50;;;;;;;19.07;9.00;;;;;;;8.98;100.00;101522.81;5089418;28;20040;-70
2021/08/21 02:50:15;;;;;;;14.33;8.93;;;;;;;9.03;100.00;101528.59;5090866;28;20028;-70
2021/08/21 02:52:41;;;;;;;29.10;11.60;;;;;;;9.02;100.00;101524.25;5089502;28;20047;-70
2021/08/21 02:55:07;;;;;;;16.70;8.90;;;;;;;9.03;100.00;101528.59;5072804;28;20373;-70
2021/08/21 02:57:35;;;;;;;20.92;11.20;;;;;;;9.02;100.00;101525.09;5072585;28;20035;-70
2021/08/21 03:00:01;;;;;;;22.97;11.80;;;;;;;9.05;100.00;101534.63;5072720;28;20110;-70
2021/08/21 03:02:36;;;;;;;17.03;8.17;;;;;;;8.95;100.00;101523.94;5089757;28;20118;-70
2021/08/21 03:05:02;;;;;;;14.40;8.70;;;;;;;8.90;100.00;101520.84;5088993;28;20118;-70
2021/08/21 03:07:28;;;;;;;20.65;10.85;;;;;;;8.91;100.00;101522.50;5072498;28;20032;-71
2021/08/21 03:09:56;;;;;;;16.88;8.98;;;;;;;8.92;100.00;101531.34;5089307;28;20028;-70
2021/08/21 03:12:32;;;;;;;19.55;9.25;;;;;;;8.86;100.00;101528.22;5089422;28;20081;-70
2021/08/21 03:15:02;;;;;;;13.10;8.25;;;;;;;8.81;100.00;101522.47;5089028;28;20032;-70
2021/08/21 03:17:27;;;;;;;20.75;10.38;;;;;;;8.86;100.00;101530.88;5088924;28;20043;-70
2021/08/21 03:19:52;;;;;;;22.30;9.43;;;;;;;8.93;100.00;101525.03;5089024;28;20024;-70
2021/08/21 03:22:19;;;;;;;22.55;11.18;;;;;;;8.90;100.00;101526.16;5089153;28;20063;-70
2021/08/21 03:24:46;;;;;;;21.50;10.75;;;;;;;8.80;100.00;101520.78;5088787;28;20509;-70
2021/08/21 03:27:11;;;;;;;21.17;9.93;;;;;;;8.79;100.00;101528.91;5088767;28;20126;-70
2021/08/21 03:29:40;;;;;;;20.75;10.35;;;;;;;8.71;100.00;101526.03;5088830;28;20039;-70
2021/08/21 03:32:10;;;;;;;19.48;9.38;;;;;;;8.64;100.00;101528.41;5072201;28;20036;-70
2021/08/21 03:34:36;;;;;;;25.45;12.00;;;;;;;8.63;100.00;101521.38;5071865;28;20546;-70
2021/08/21 03:37:02;;;;;;;24.30;10.23;;;;;;;8.65;100.00;101527.41;5071989;28;20130;-71
2021/08/21 03:39:31;;;;;;;19.98;10.35;;;;;;;8.66;100.00;101527.28;5072208;28;20031;-70
2021/08/21 03:41:56;;;;;;;25.70;10.87;;;;;;;8.62;100.00;101525.03;5088815;28;20077;-70
2021/08/21 03:44:21;;;;;;;26.37;11.03;;;;;;;8.63;100.00;101534.69;5088562;28;20039;-71
2021/08/21 03:46:48;;;;;;;17.65;9.43;;;;;;;8.62;100.00;101538.31;5088171;28;20574;-70
2021/08/21 03:49:13;;;;;;;18.47;9.40;;;;;;;8.60;100.00;101538.44;5088680;28;20070;-70
2021/08/21 03:51:39;;;;;;;17.50;9.07;;;;;;;8.63;100.00;101540.84;5088305;28;20063;-70
2021/08/21 03:54:05;;;;;;;17.00;9.18;;;;;;;8.66;100.00;101545.06;5088414;28;20020;-70
2021/08/21 03:56:31;;;;;;;17.73;8.55;;;;;;;8.60;100.00;101537.63;5089064;28;20040;-70
2021/08/21 03:59:04;;;;;;;15.07;8.73;;;;;;;8.55;100.00;101543.31;5088462;28;20032;-70
2021/08/21 04:01:30;;;;;;;14.57;7.40;;;;;;;8.56;100.00;101549.47;5088157;28;20123;-70
2021/08/21 04:04:03;;;;;;;15.43;8.63;;;;;;;8.58;100.00;101547.53;5088087;28;20112;-70
2021/08/21 04:06:32;;;;;;;15.98;8.55;;;;;;;8.60;100.00;101554.41;5087752;28;20361;-70
2021/08/21 04:08:57;;;;;;;16.07;9.17;;;;;;;8.71;100.00;101558.84;5088121;28;20028;-70
2021/08/21 04:11:30;;;;;;;14.20;8.45;;;;;;;8.80;100.00;101558.06;5087919;28;20080;-70
2021/08/21 04:14:13;;;;;;;14.85;8.60;;;;;;;8.93;100.00;101565.00;5089091;28;20067;-70
2021/08/21 04:16:39;;;;;;;14.93;9.07;;;;;;;9.04;100.00;101564.91;5087784;28;20067;-70
2021/08/21 04:19:05;;;;;;;15.15;8.65;;;;;;;9.20;100.00;101570.59;5087955;28;20032;-70
2021/08/21 04:21:39;;;;;;;19.75;9.15;;;;;;;9.19;100.00;101568.91;5071612;28;20062;-70
2021/08/21 04:24:06;;;;;;;13.68;8.15;;;;;;;9.23;100.00;101570.34;5087882;28;20428;-70
2021/08/21 04:26:32;;;;;;;17.52;8.15;;;;;;;9.31;100.00;101574.97;5087571;28;20453;-70
2021/08/21 04:28:59;;;;;;;17.23;8.07;;;;;;;9.34;100.00;101568.53;5087859;28;20028;-70
2021/08/21 04:31:24;;;;;;;14.07;8.20;;;;;;;9.46;100.00;101570.16;5087931;28;20085;-70
2021/08/21 04:33:50;;;;;;;13.33;7.53;;;;;;;9.53;100.00;101579.28;5087500;28;20335;-70
2021/08/21 04:36:15;;;;;;;12.00;7.20;;;;;;;9.59;100.00;101578.72;5088306;28;20044;-70
2021/08/21 04:38:41;;;;;;;15.02;8.60;;;;;;;9.64;100.00;101579.16;5087619;28;20039;-71
2021/08/21 04:41:07;;;;;;;11.23;7.15;;;;;;;9.73;100.00;101589.00;5071106;28;20036;-70
2021/08/21 04:43:32;;;;;;;17.80;8.47;;;;;;;9.82;100.00;101591.84;5087516;28;20028;-70
2021/08/21 04:45:58;;;;;;;19.75;9.38;;;;;;;9.88;100.00;101580.63;5087173;28;20047;-70
2021/08/21 04:48:24;;;;;;;16.55;8.55;;;;;;;9.95;100.00;101592.44;5087214;28;20134;-70
2021/08/21 04:50:50;;;;;;;;;;;;;;;10.07;100.00;101591.34;5088127;28;20361;-70
2021/08/21 04:53:16;;;;;;;;;;;;;;;10.13;100.00;101600.59;5087768;28;19916;-70
2021/08/21 04:55:44;;;;;;;26.00;12.10;;;;;;;10.19;100.00;101594.72;5070722;28;19916;-70
2021/08/21 04:58:11;;;;;;;19.75;10.07;;;;;;;10.22;100.00;101599.78;5087047;28;20020;-70
2021/08/21 05:00:36;;;;;;;19.50;10.48;;;;;;;10.31;100.00;101608.81;5087452;28;20526;-70
2021/08/21 05:03:07;;;;;;;15.15;8.25;;;;;;;10.35;100.00;101603.03;5087249;28;20059;-70
2021/08/21 05:05:33;;;;;;;13.97;8.70;;;;;;;10.48;100.00;101599.25;5087240;28;20067;-70
2021/08/21 05:08:01;;;;;;;21.45;9.35;;;;;;;10.54;100.00;101598.69;5070554;28;20027;-70
2021/08/21 05:10:27;;;;;;;18.08;9.48;;;;;;;10.57;100.00;101599.25;5086869;28;20089;-70
2021/08/21 05:12:52;;;;;;;26.07;11.33;;;;;;;10.75;100.00;101607.38;5070431;28;20473;-70
2021/08/21 05:15:18;;;;;;;23.38;10.65;;;;;;;10.87;100.00;101613.41;5086953;28;21235;-70
2021/08/21 05:17:55;;;;;;;23.80;10.35;;;;;;;11.01;100.00;101613.97;5086920;28;20093;-70
2021/08/21 05:20:51;;;;;;;26.90;11.25;;;;;;;11.09;100.00;101614.91;5087214;28;20036;-70
2021/08/21 05:23:19;;;;;;;21.08;11.07;;;;;;;11.19;100.00;101609.53;5087090;28;20035;-70
2021/08/21 05:25:46;;;;;;;23.15;12.35;;;;;;;11.28;100.00;101602.47;5086816;28;20467;-70
2021/08/21 05:28:15;;;;;;;17.95;10.93;;;;;;;11.43;100.00;101613.53;5070589;28;20036;-70
2021/08/21 05:30:41;;;;;;;18.05;11.13;;;;;;;11.50;100.00;101614.63;5087112;28;20107;-70
2021/08/21 05:33:11;;;;;;;22.13;11.38;;;;;;;11.60;100.00;101612.75;5087001;28;20032;-70
2021/08/21 05:35:37;;;;;;;20.80;11.75;;;;;;;11.67;100.00;101603.16;5086811;28;20028;-69
2021/08/21 05:38:03;;;;;;;22.98;10.70;;;;;;;11.66;100.00;101604.16;5087735;28;20024;-70
2021/08/21 05:40:29;;;;;;;18.92;10.50;;;;;;;11.84;100.00;101606.84;5086903;28;20362;-70
2021/08/21 05:42:55;;;;;;;18.05;9.98;;;;;;;11.86;100.00;101612.06;5088098;28;20058;-70
2021/08/21 05:45:20;;;;;;;16.30;10.00;;;;;;;11.92;100.00;101611.50;5069756;28;20043;-70
2021/08/21 05:47:45;;;;;;;18.47;10.00;;;;;;;11.97;100.00;101618.06;5087686;28;20036;-70
2021/08/21 05:50:11;;;;;;;17.87;10.30;;;;;;;11.99;100.00;101613.41;5087972;28;20089;-70
2021/08/21 05:52:37;;;;;;;15.38;8.93;;;;;;;12.12;100.00;101620.22;5086840;28;20697;-70
2021/08/21 05:55:02;;;;;;;21.97;10.73;;;;;;;12.24;100.00;101627.03;5087761;28;20046;-70
2021/08/21 05:57:39;;;;;;;19.98;9.52;;;;;;;12.46;100.00;101625.78;5086827;28;20121;-70
2021/08/21 06:00:05;;;;;;;17.77;8.67;;;;;;;12.57;100.00;101630.03;5086985;28;20119;-70
2021/08/21 06:02:38;;;;;;;15.43;9.30;;;;;;;12.69;100.00;101626.13;5086697;28;20868;-70
2021/08/21 06:05:04;;;;;;;17.23;9.63;;;;;;;12.80;100.00;101617.84;5086702;28;20042;-70
2021/08/21 06:07:30;;;;;;;15.37;9.03;;;;;;;12.95;100.00;101623.50;5069661;28;20286;-70
2021/08/21 06:09:56;;;;;;;13.25;8.32;;;;;;;12.98;100.00;101630.38;5086997;28;20725;-70
2021/08/21 06:12:22;;;;;;;12.85;8.15;;;;;;;13.08;100.00;101631.94;5086393;28;20469;-70
2021/08/21 06:14:47;;;;;;;16.23;8.27;;;;;;;13.27;100.00;101633.63;5087755;28;20048;-70
2021/08/21 06:17:13;;;;;;;17.87;9.53;;;;;;;13.36;100.00;101631.81;5087349;28;20131;-70
2021/08/21 06:19:38;;;;;;;13.17;8.77;;;;;;;13.46;100.00;101627.19;5069923;28;20035;-73
2021/08/21 06:22:05;;;;;;;14.90;7.97;;;;;;;13.66;100.00;101640.34;5086675;28;20050;-70
2021/08/21 06:24:31;;;;;;;13.05;8.50;;;;;;;13.76;100.00;101627.63;5091210;28;20047;-71
2021/08/21 06:26:56;;;;;;;16.55;9.05;;;;;;;13.75;100.00;101627.81;5090842;28;20027;-71
2021/08/21 06:29:22;;;;;;;17.87;9.30;;;;;;;13.86;100.00;101636.41;5091348;28;20109;-70
2021/08/21 06:31:47;;;;;;;11.77;7.60;;;;;;;13.80;100.00;101620.94;5090104;28;20036;-70
2021/08/21 06:34:12;;;;;;;11.57;7.43;;;;;;;13.99;100.00;101624.38;5090762;28;20032;-71
2021/08/21 06:36:38;;;;;;;13.37;8.00;;;;;;;14.25;100.00;101627.78;5090906;28;20032;-70
2021/08/21 06:39:03;;;;;;;15.53;8.57;;;;;;;14.44;100.00;101633.84;5089903;28;20458;-70
2021/08/21 06:41:28;;;;;;;15.10;8.00;;;;;;;14.55;99.38;101630.88;5073101;28;20027;-70
2021/08/21 06:43:55;;;;;;;14.25;7.70;;;;;;;14.51;98.12;101629.47;5073162;28;20555;-70
2021/08/21 06:46:33;;;;;;;12.15;8.57;;;;;;;14.82;97.05;101635.09;5089140;28;20459;-70
2021/08/21 06:48:58;;;;;;;9.43;6.40;;;;;;;14.95;94.74;101626.50;5089108;28;20116;-70
2021/08/21 06:51:23;;;;;;;11.27;6.63;;;;;;;15.29;95.29;101638.84;5089399;28;20680;-70
2021/08/21 06:53:49;;;;;;;11.43;6.43;;;;;;;15.43;94.31;101640.00;5088209;28;20386;-70
2021/08/21 06:56:17;;;;;;;10.10;6.47;;;;;;;15.57;94.51;101652.78;5087840;28;20373;-70
2021/08/21 06:58:42;;;;;;;8.38;6.35;;;;;;;15.28;94.72;101646.09;5088129;28;20024;-70
2021/08/21 07:01:10;;;;;;;10.87;6.83;;;;;;;15.30;92.87;101651.31;5088996;28;20051;-70
2021/08/21 07:03:35;;;;;;;11.90;6.88;;;;;;;14.82;93.90;101643.16;5089411;28;20032;-70
2021/08/21 07:06:00;;;;;;;11.03;7.30;;;;;;;14.89;94.43;101648.66;5090198;28;20020;-70
2021/08/21 07:08:26;;;;;;;9.07;6.67;;;;;;;15.14;93.53;101644.94;5090371;28;20115;-70
2021/08/21 07:10:51;;;;;;;8.77;5.77;;;;;;;15.41;91.80;101653.66;5089612;28;20051;-70
2021/08/21 07:13:16;;;;;;;9.50;6.80;;;;;;;15.92;90.81;101651.47;5089363;28;20031;-70
2021/08/21 07:15:42;;;;;;;8.30;4.93;;;;;;;16.30;90.20;101659.69;5089699;28;20046;-70
2021/08/21 07:18:07;;;;;;;8.20;5.83;;;;;;;16.56;89.37;101661.19;5089436;28;20040;-70
2021/08/21 07:20:33;;;;;;;6.63;5.10;;;;;;;16.29;87.35;101654.47;5089651;28;20114;-71
2021/08/21 07:22:58;;;;;;;6.97;4.20;;;;;;;17.20;83.69;101645.47;5089258;28;20078;-70
2021/08/21 07:25:23;;;;;;;6.20;5.07;;;;;;;17.37;82.76;101645.31;5089943;28;20047;-70
2021/08/21 07:27:49;;;;;;;4.83;3.90;;;;;;;17.54;83.06;101648.69;5088902;28;20028;-70
2021/08/21 07:30:14;;;;;;;3.80;3.37;;;;;;;17.76;81.83;101655.00;5089868;28;20059;-70
2021/08/21 07:32:39;;;;;;;6.57;4.40;;;;;;;17.75;82.09;101659.56;5088916;28;20095;-70
2021/08/21 07:35:05;;;;;;;4.10;3.50;;;;;;;17.33;80.32;101657.53;5088327;28;20035;-70
2021/08/21 07:37:31;;;;;;;3.90;2.97;;;;;;;18.36;79.69;101664.69;5089657;28;20020;-70
2021/08/21 07:39:57;;;;;;;7.25;3.50;;;;;;;17.70;80.70;101660.13;5089826;28;20050;-70
2021/08/21 07:42:22;;;;;;;4.20;2.30;;;;;;;18.11;74.56;101659.59;5088889;28;20028;-70
2021/08/21 07:44:47;;;;;;;5.93;2.70;;;;;;;17.26;78.17;101650.16;5088427;28;20028;-70
2021/08/21 07:47:13;;;;;;;3.30;2.63;;;;;;;18.22;77.87;101662.88;5089361;28;20479;-70
2021/08/21 07:49:38;;;;;;;2.30;2.00;;;;;;;18.95;75.22;101671.72;5089865;28;20091;-70
2021/08/21 07:52:04;;;;;;;3.77;1.73;;;;;;;19.34;71.44;101679.31;5089437;28;20111;-70
2021/08/21 07:54:29;;;;;;;2.42;1.88;;;;;;;19.36;71.98;101679.09;5089452;28;20410;-71
2021/08/21 07:56:55;;;;;;;3.70;2.03;;;;;;;19.01;73.15;101683.63;5089257;28;20373;-70
2021/08/21 07:59:20;;;;;;;3.30;2.42;;;;;;;18.89;71.76;101681.44;5089626;28;20374;-70
2021/08/21 08:01:45;;;;;;;5.53;2.07;;;;;;;19.29;70.46;101679.06;5089277;28;20028;-70
2021/08/21 08:04:11;;;;;;;2.67;1.40;;;;;;;19.94;67.67;101674.22;5088528;28;20407;-71
2021/08/21 08:06:36;;;;;;;3.10;1.60;;;;;;;20.32;66.17;101681.03;5089024;28;20115;-70
2021/08/21 08:09:01;;;;;;;3.83;2.40;;;;;;;20.48;67.57;101677.94;5089418;28;20122;-70
2021/08/21 08:11:27;;;;;;;7.20;2.90;;;;;;;20.81;67.08;101677.19;5089213;28;20405;-70
2021/08/21 08:13:52;;;;;;;4.77;2.00;;;;;;;20.92;66.25;101673.84;5087992;28;20046;-70
2021/08/21 08:16:17;;;;;;;2.73;1.90;;;;;;;21.00;65.07;101675.53;5088667;28;20040;-70
2021/08/21 08:18:43;;;;;;;3.83;1.57;;;;;;;20.53;67.85;101675.44;5088219;28;20143;-70
2021/08/21 08:21:10;;;;;;;3.13;1.30;;;;;;;20.52;63.46;101676.50;5089071;28;20079;-70
2021/08/21 08:23:35;;;;;;;2.47;1.20;;;;;;;20.15;60.34;101675.16;5087916;28;20044;-70
2021/08/21 08:26:01;;;;;;;1.53;0.93;;;;;;;20.52;57.94;101671.06;5088738;28;20085;-70
2021/08/21 08:28:26;;;;;;;1.40;1.10;;;;;;;20.83;60.46;101675.09;5087923;28;20052;-71
2021/08/21 08:30:53;;;;;;;2.67;1.10;;;;;;;20.79;61.70;101673.84;5087984;28;20047;-70
2021/08/21 08:33:21;;;;;;;1.90;1.73;;;;;;;20.59;62.72;101679.25;5087826;28;20036;-70
2021/08/21 08:35:47;;;;;;;4.60;1.35;;;;;;;20.69;62.32;101678.84;5088645;28;20032;-70
2021/08/21 08:38:12;;;;;;;1.43;0.90;;;;;;;20.91;60.66;101691.19;5087791;28;20519;-70
2021/08/21 08:40:37;;;;;;;1.23;1.00;;;;;;;21.21;60.72;101688.03;5089062;28;20074;-70
2021/08/21 08:43:04;;;;;;;2.77;1.07;;;;;;;21.83;57.70;101686.69;5070604;28;20063;-70
2021/08/21 08:45:29;;;;;;;1.00;0.90;;;;;;;21.18;58.13;101672.19;5086585;28;20104;-70
2021/08/21 08:47:55;;;;;;;1.10;0.83;;;;;;;21.47;58.08;101685.34;5087343;28;20032;-70
2021/08/21 08:50:20;;;;;;;1.70;0.90;;;;;;;21.82;59.26;101679.59;5087791;28;20054;-70
2021/08/21 08:52:46;;;;;;;0.80;0.80;;;;;;;21.15;58.33;101680.75;5070883;28;20110;-70
2021/08/21 08:55:12;;;;;;;1.37;1.00;;;;;;;21.49;56.20;101683.25;5088371;28;20462;-70
2021/08/21 08:57:46;;;;;;;1.13;0.70;;;;;;;21.70;54.23;101684.88;5070539;28;20269;-70
2021/08/21 09:00:17;;;;;;;1.90;0.80;;;;;;;21.70;56.35;101687.59;5088433;28;20036;-70
2021/08/21 09:02:56;;;;;;;0.95;0.65;;;;;;;21.80;55.22;101687.13;5088511;28;20069;-70
2021/08/21 09:05:23;;;;;;;3.08;1.50;;;;;;;22.76;52.82;101688.13;5088308;28;20521;-70
2021/08/21 09:07:56;;;;;;;1.10;0.90;;;;;;;22.75;52.87;101684.53;5088390;28;20365;-70
2021/08/21 09:10:27;;;;;;;1.10;0.88;;;;;;;22.05;53.84;101678.22;5070505;28;20138;-70
2021/08/21 09:13:08;;;;;;;1.42;1.00;;;;;;;21.63;53.16;101675.03;5087493;28;20180;-70
2021/08/21 09:15:59;;;;;;;1.63;1.10;;;;;;;21.10;50.98;101680.56;5088194;28;20035;-70
2021/08/21 09:18:29;;;;;;;1.50;0.90;;;;;;;21.83;53.27;101677.72;5087627;28;20111;-70
2021/08/21 09:20:57;;;;;;;1.65;0.90;;;;;;;21.58;52.72;101677.56;5088031;28;20046;-70
2021/08/21 09:23:38;;;;;;;1.42;0.90;;;;;;;22.11;51.85;101677.38;5087398;28;20071;-70
2021/08/21 09:26:20;;;;;;;3.17;0.90;;;;;;;22.95;50.28;101681.66;5087702;28;20036;-70
2021/08/21 09:28:48;;;;;;;2.03;0.75;;;;;;;22.71;48.78;101683.34;5072618;28;20044;-70
2021/08/21 09:31:22;;;;;;;1.30;0.80;;;;;;;22.24;50.51;101679.22;5087016;28;20020;-70
2021/08/21 09:33:55;;;;;;;1.27;1.10;;;;;;;22.68;51.90;101678.31;5087166;28;20468;-70
2021/08/21 09:36:31;;;;;;;1.13;0.98;;;;;;;22.27;53.74;101671.47;5087530;28;20040;-70
2021/08/21 09:38:57;;;;;;;2.03;0.82;;;;;;;22.12;55.55;101674.44;5070488;28;20466;-70
2021/08/21 09:41:23;;;;;;;5.47;0.90;;;;;;;22.53;53.64;101675.09;5087903;28;20027;-70
2021/08/21 09:44:01;;;;;;;2.60;1.10;;;;;;;22.89;52.01;101670.81;5087925;28;20036;-70
2021/08/21 09:46:26;;;;;;;1.67;0.95;;;;;;;23.28;51.41;101674.28;5086495;28;20081;-70
2021/08/21 09:49:02;;;;;;;3.17;2.10;;;;;;;22.74;53.13;101661.09;5087049;28;20040;-70
2021/08/21 09:51:32;;;;;;;;;;;;;;;23.20;50.80;101675.41;5088147;28;20065;-70
2021/08/21 09:54:02;;;;;;;2.30;1.02;;;;;;;22.44;56.33;101660.91;5087929;28;19912;-70
2021/08/21 09:56:33;;;;;;;2.17;1.60;;;;;;;22.81;52.84;101654.78;5087897;28;20036;-70
2021/08/21 09:59:00;;;;;;;8.38;6.15;;;;;;;22.77;52.31;101652.47;5090970;28;20044;-70
2021/08/21 10:01:27;;;;;;;2.42;1.40;;;;;;;23.76;50.62;101659.94;5090625;28;20020;-70
2021/08/21 10:03:53;;;;;;;4.53;3.03;;;;;;;24.43;51.49;101655.25;5091755;28;20108;-70
2021/08/21 10:06:19;;;;;;;3.30;1.63;;;;;;;24.44;47.62;101651.47;5090088;28;20718;-70
2021/08/21 10:08:44;;;;;;;1.80;1.50;;;;;;;23.93;48.07;101652.00;5091522;28;20032;-70
2021/08/21 10:11:10;;;;;;;3.17;1.67;;;;;;;24.94;45.66;101657.66;5090505;28;20293;-70
2021/08/21 10:13:39;;;;;;;3.80;3.22;;;;;;;24.92;46.06;101651.59;5090441;28;20036;-70
2021/08/21 10:16:08;;;;;;;1.17;1.08;;;;;;;24.82;45.60;101652.19;5091072;28;20054;-70
2021/08/21 10:18:34;;;;;;;2.45;1.70;;;;;;;24.16;45.21;101659.44;5090283;28;20177;-70
2021/08/21 10:21:00;;;;;;;3.10;2.05;;;;;;;24.20;44.69;101656.00;5091319;28;20040;-70
2021/08/21 10:23:28;;;;;;;1.40;0.80;;;;;;;24.42;47.95;101650.06;5090932;28;20036;-70
2021/08/21 10:25:59;;;;;;;3.25;0.90;;;;;;;24.94;41.86;101653.03;5089742;28;20310;-70
2021/08/21 10:28:30;;;;;;;1.52;0.93;;;;;;;24.77;43.15;101650.16;5091026;28;20040;-70
2021/08/21 10:30:55;;;;;;;1.77;0.93;;;;;;;24.72;42.74;101650.00;5091310;28;20043;-70
2021/08/21 10:33:20;;;;;;;1.90;0.80;;;;;;;24.36;43.16;101646.34;5090959;28;20020;-70
2021/08/21 10:35:54;;;;;;;1.10;0.80;;;;;;;24.47;46.29;101646.63;5089821;28;20056;-70
2021/08/21 10:38:28;;;;;;;1.40;1.00;;;;;;;24.80;43.95;101646.13;5072967;28;20599;-70
2021/08/21 10:41:15;;;;;;;2.35;0.90;;;;;;;24.20;43.94;101644.28;5089882;28;20040;-70
2021/08/21 10:43:52;;;;;;;2.42;1.20;;;;;;;25.76;42.12;101643.09;5065434;28;20056;-70
2021/08/21 10:46:29;;;;;;;1.20;1.10;;;;;;;25.34;42.27;101656.97;5072412;28;20233;-70
2021/08/21 10:48:56;;;;;;;1.83;0.70;;;;;;;24.73;44.23;101654.41;5089726;28;20075;-70
2021/08/21 10:51:43;;;;;;;1.38;0.90;;;;;;;24.44;43.66;101654.22;5090814;28;20028;-70
2021/08/21 10:54:26;;;;;;;2.22;1.20;;;;;;;24.05;44.55;101641.97;5090444;28;20055;-70
2021/08/21 10:56:57;;;;;;;0.75;0.73;;;;;;;25.04;41.70;101639.59;5089885;28;20643;-70
2021/08/21 10:59:42;;;;;;;1.40;1.10;;;;;;;25.34;42.08;101641.41;5089652;28;20032;-70
2021/08/21 11:02:22;;;;;;;1.37;0.83;;;;;;;24.94;44.69;101636.63;5090485;28;20036;-70
2021/08/21 11:04:48;;;;;;;0.65;0.50;;;;;;;25.25;41.17;101643.66;5088396;28;20070;-69
2021/08/21 11:07:32;;;;;;;1.75;0.70;;;;;;;26.67;40.53;101640.47;5089398;28;20449;-70
2021/08/21 11:10:11;;;;;;;0.63;0.55;;;;;;;25.89;38.99;101638.22;5089539;28;20130;-70
2021/08/21 11:12:37;;;;;;;1.00;0.82;;;;;;;24.03;41.03;101641.38;5090404;28;20040;-69
2021/08/21 11:15:21;;;;;;;3.35;0.90;;;;;;;23.42;43.28;101643.13;5089973;28;20090;-70
2021/08/21 11:17:47;;;;;;;2.22;0.75;;;;;;;24.07;42.34;101633.53;5089257;28;20054;-69
2021/08/21 11:20:32;;;;;;;1.65;1.02;;;;;;;24.08;41.92;101637.94;5089290;28;20051;-69
2021/08/21 11:23:07;;;;;;;0.68;0.60;;;;;;;25.72;39.21;101644.66;5089230;28;20043;-70